Time;durP1;ratioP1;P1;durP2;ratioP2;P2;SDS_P1;SDS_P2;PMS_P1;PMS_P2;Temp;Humidity;BMP_temperature;BMP_pressure;BME280_temperature;BME280_humidity;BME280_pressure;Samples;Min_cycle;Max_cycle;Signal;HPM_P1;HPM_P2
2024/03/22 00:01:54;;;;;;;2.53;2.33;;;;;;;13.73;45.81;100181.34;4465116;31;33220;-83
2024/03/22 00:04:21;;;;;;;2.42;2.28;;;;;;;13.77;46.05;100187.34;4444083;31;33563;-83
2024/03/22 00:06:49;;;;;;;7.22;2.85;;;;;;;13.71;46.27;100185.84;4467925;31;34854;-84
2024/03/22 00:09:16;;;;;;;2.95;1.83;;;;;;;13.78;46.09;100178.44;4469442;31;32724;-83
2024/03/22 00:11:44;;;;;;;2.45;2.25;;;;;;;13.86;46.28;100186.00;4482070;31;35084;-83
2024/03/22 00:14:11;;;;;;;5.60;2.97;;;;;;;13.87;46.18;100180.63;4470482;31;34828;-83
2024/03/22 00:16:38;;;;;;;1.40;1.33;;;;;;;14.00;45.63;100178.19;4469943;31;34540;-83
2024/03/22 00:19:04;;;;;;;2.50;2.37;;;;;;;13.94;46.03;100170.56;4459333;31;31643;-83
2024/03/22 00:21:31;;;;;;;2.97;1.92;;;;;;;14.14;45.47;100169.50;4466403;31;33128;-83
2024/03/22 00:23:58;;;;;;;1.92;1.73;;;;;;;14.26;44.96;100166.22;4473687;31;33129;-83
2024/03/22 00:26:24;;;;;;;1.17;1.17;;;;;;;14.20;45.17;100169.22;4468894;31;33111;-83
2024/03/22 00:28:51;;;;;;;3.65;1.77;;;;;;;14.34;44.88;100169.34;4469577;31;33254;-82
2024/03/22 00:31:18;;;;;;;4.43;4.07;;;;;;;14.39;44.84;100163.78;4472066;31;32225;-83
2024/03/22 00:33:45;;;;;;;2.97;2.67;;;;;;;14.43;44.90;100171.50;4459817;31;34372;-83
2024/03/22 00:36:11;;;;;;;6.93;3.17;;;;;;;14.33;45.50;100176.41;4461911;31;34334;-83
2024/03/22 00:38:38;;;;;;;3.65;1.73;;;;;;;14.54;45.10;100163.81;4467443;31;32215;-83
2024/03/22 00:41:04;;;;;;;10.60;2.28;;;;;;;14.59;45.02;100166.25;4468330;31;36347;-83
2024/03/22 00:43:31;;;;;;;2.03;1.70;;;;;;;14.48;45.19;100164.16;4484340;31;33812;-83
2024/03/22 00:45:58;;;;;;;1.92;1.45;;;;;;;14.59;45.03;100160.91;4468527;31;34119;-83
2024/03/22 00:48:25;;;;;;;3.40;2.55;;;;;;;14.62;45.30;100163.38;4449712;31;33842;-83
2024/03/22 00:50:52;;;;;;;3.83;2.87;;;;;;;14.42;45.73;100161.78;4467020;31;32662;-83
2024/03/22 00:53:18;;;;;;;2.83;2.50;;;;;;;14.48;45.64;100161.50;4459783;31;33082;-83
2024/03/22 00:55:50;;;;;;;3.22;0.88;;;;;;;14.68;45.25;100154.25;4474521;31;35147;-83
2024/03/22 00:58:18;;;;;;;1.70;1.17;;;;;;;14.57;45.64;100153.03;4466373;31;32115;-83
2024/03/22 01:00:46;;;;;;;3.28;1.98;;;;;;;14.69;45.35;100147.97;4478328;31;34961;-83
2024/03/22 01:03:13;;;;;;;3.00;2.42;;;;;;;14.56;45.86;100153.97;4471625;31;32982;-83
2024/03/22 01:05:42;;;;;;;4.05;1.98;;;;;;;14.58;45.68;100148.59;4476600;31;33626;-83
2024/03/22 01:08:09;;;;;;;5.25;3.22;;;;;;;14.79;45.01;100149.19;4467135;31;34101;-83
2024/03/22 01:10:35;;;;;;;2.75;2.55;;;;;;;14.84;44.81;100144.47;4481433;31;34714;-83
2024/03/22 01:13:02;;;;;;;8.70;2.47;;;;;;;14.72;45.13;100145.16;4490591;31;34612;-83
2024/03/22 01:15:29;;;;;;;2.45;1.48;;;;;;;14.76;44.96;100152.00;4477140;31;34411;-83
2024/03/22 01:17:56;;;;;;;2.83;2.58;;;;;;;14.65;45.55;100159.72;4471702;31;31980;-83
2024/03/22 01:20:22;;;;;;;1.83;1.42;;;;;;;14.75;45.26;100155.63;4476637;31;32357;-83
2024/03/22 01:22:49;;;;;;;2.22;1.62;;;;;;;14.76;45.31;100165.28;4477714;31;35007;-83
2024/03/22 01:25:16;;;;;;;5.10;2.50;;;;;;;14.72;45.61;100167.28;4472971;31;33811;-83
2024/03/22 01:27:42;;;;;;;1.58;1.48;;;;;;;14.84;45.01;100160.41;4461890;31;33470;-83
2024/03/22 01:30:10;;;;;;;2.65;2.45;;;;;;;14.92;44.87;100150.22;4473055;31;34949;-84
2024/03/22 01:32:36;;;;;;;2.40;2.20;;;;;;;14.96;44.76;100149.13;4473747;31;34055;-84
2024/03/22 01:35:03;;;;;;;1.35;1.25;;;;;;;14.91;44.95;100156.50;4477182;31;32687;-84
2024/03/22 01:37:30;;;;;;;2.72;1.60;;;;;;;14.81;45.23;100156.16;4443993;31;34890;-84
2024/03/22 01:39:57;;;;;;;15.02;3.30;;;;;;;14.83;45.26;100151.59;4473393;31;33203;-83
2024/03/22 01:42:24;;;;;;;3.40;2.05;;;;;;;14.84;45.19;100140.00;4466514;31;33304;-84
2024/03/22 01:44:51;;;;;;;1.62;1.23;;;;;;;14.81;45.28;100150.84;4466779;31;34622;-83
2024/03/22 01:47:17;;;;;;;2.42;2.22;;;;;;;14.75;45.75;100151.16;4485135;31;33273;-82
2024/03/22 01:49:45;;;;;;;3.67;1.70;;;;;;;14.72;45.58;100150.47;4467417;31;32370;-81
2024/03/22 01:52:14;;;;;;;5.22;2.80;;;;;;;14.86;45.17;100142.59;4484714;31;33715;-82
2024/03/22 01:54:41;;;;;;;2.47;2.05;;;;;;;14.91;44.94;100144.97;4477960;31;34424;-81
2024/03/22 01:57:08;;;;;;;1.27;1.17;;;;;;;14.94;44.64;100145.66;4475781;31;33162;-81
2024/03/22 01:59:35;;;;;;;3.55;2.65;;;;;;;14.78;44.88;100139.50;4456213;31;32517;-81
2024/03/22 02:02:02;;;;;;;1.62;0.95;;;;;;;14.83;44.91;100134.78;4472234;31;32788;-81
2024/03/22 02:04:29;;;;;;;4.35;2.35;;;;;;;14.77;44.94;100135.13;4470249;31;35132;-82
2024/03/22 02:06:55;;;;;;;2.17;2.08;;;;;;;14.62;45.28;100143.94;4487792;31;33244;-82
2024/03/22 02:09:22;;;;;;;2.17;1.98;;;;;;;14.70;45.07;100137.25;4475095;31;33839;-82
2024/03/22 02:11:49;;;;;;;4.05;1.65;;;;;;;14.84;44.94;100139.16;4448461;31;34852;-81
2024/03/22 02:14:16;;;;;;;1.77;1.65;;;;;;;14.87;44.87;100144.31;4470521;31;33628;-81
2024/03/22 02:16:42;;;;;;;9.38;3.40;;;;;;;15.02;44.36;100132.81;4454447;31;32029;-81
2024/03/22 02:19:10;;;;;;;3.08;2.80;;;;;;;14.85;44.72;100136.41;4442980;31;34382;-81
2024/03/22 02:21:36;;;;;;;1.33;1.23;;;;;;;14.93;44.62;100128.00;4482587;31;34065;-82
2024/03/22 02:24:03;;;;;;;7.12;2.78;;;;;;;14.84;44.88;100137.34;4472014;31;32559;-82
2024/03/22 02:26:30;;;;;;;8.27;3.05;;;;;;;14.99;44.61;100138.28;4462402;31;34012;-81
2024/03/22 02:28:57;;;;;;;8.40;3.17;;;;;;;14.75;45.12;100151.16;4470875;31;33661;-82
2024/03/22 02:31:25;;;;;;;3.85;3.47;;;;;;;14.71;45.25;100157.56;4469138;31;33577;-82
2024/03/22 02:33:52;;;;;;;3.50;1.92;;;;;;;14.65;45.62;100154.41;4472327;31;34234;-81
2024/03/22 02:36:19;;;;;;;3.40;2.08;;;;;;;14.42;46.07;100153.81;4475745;31;32248;-82
2024/03/22 02:38:45;;;;;;;3.25;2.33;;;;;;;14.50;45.78;100146.34;4474040;31;34128;-82
2024/03/22 02:41:12;;;;;;;2.78;2.58;;;;;;;14.59;45.54;100145.84;4457171;31;34731;-82
2024/03/22 02:43:38;;;;;;;2.72;2.53;;;;;;;14.64;45.72;100142.91;4461987;31;32413;-82
2024/03/22 02:46:05;;;;;;;2.40;2.05;;;;;;;14.70;45.42;100137.25;4454268;31;31945;-82
2024/03/22 02:48:32;;;;;;;1.52;1.42;;;;;;;14.66;45.55;100137.50;4476061;31;32536;-82
2024/03/22 02:50:58;;;;;;;5.87;3.17;;;;;;;14.59;45.82;100135.19;4462732;31;33062;-82
2024/03/22 02:53:25;;;;;;;2.65;1.42;;;;;;;14.46;46.38;100142.09;4463122;31;33192;-82
2024/03/22 02:55:52;;;;;;;2.37;1.30;;;;;;;14.58;45.80;100141.47;4453374;31;34412;-82
2024/03/22 02:58:20;;;;;;;6.03;1.48;;;;;;;14.50;45.87;100143.66;4461985;31;33614;-82
2024/03/22 03:00:46;;;;;;;7.25;1.73;;;;;;;14.51;46.06;100139.22;4483214;31;33891;-82
2024/03/22 03:03:14;;;;;;;2.15;1.85;;;;;;;14.49;46.50;100135.78;4482088;31;35101;-82
2024/03/22 03:05:41;;;;;;;2.78;1.65;;;;;;;14.11;47.33;100125.41;4468328;31;32162;-81
2024/03/22 03:08:08;;;;;;;6.60;3.97;;;;;;;14.47;46.72;100130.50;4469409;31;33782;-81
2024/03/22 03:10:36;;;;;;;2.87;2.67;;;;;;;14.55;46.59;100133.66;4471736;31;34354;-81
2024/03/22 03:13:02;;;;;;;2.53;2.33;;;;;;;14.55;46.57;100133.66;4476275;31;34541;-82
2024/03/22 03:15:29;;;;;;;1.08;1.08;;;;;;;14.66;46.33;100122.41;4456276;31;31923;-83
2024/03/22 03:17:56;;;;;;;1.90;0.77;;;;;;;14.69;46.28;100118.75;4448055;31;34112;-82
2024/03/22 03:20:23;;;;;;;9.98;3.72;;;;;;;14.71;46.37;100116.84;4471902;31;34360;-82
2024/03/22 03:22:49;;;;;;;3.92;2.55;;;;;;;14.78;46.36;100123.56;4468260;31;33491;-81
2024/03/22 03:25:16;;;;;;;1.73;1.60;;;;;;;14.73;46.54;100120.28;4460249;31;34702;-82
2024/03/22 03:27:43;;;;;;;2.17;1.83;;;;;;;14.64;46.99;100123.47;4467247;31;32888;-81
2024/03/22 03:30:09;;;;;;;1.87;1.77;;;;;;;14.52;47.20;100123.19;4469809;31;33968;-82
2024/03/22 03:32:36;;;;;;;2.28;1.17;;;;;;;14.59;47.16;100127.22;4463557;31;34771;-82
2024/03/22 03:35:03;;;;;;;1.95;1.85;;;;;;;14.51;47.32;100126.78;4478720;31;31829;-82
2024/03/22 03:37:31;;;;;;;2.80;2.58;;;;;;;14.56;47.17;100132.69;4481228;31;32580;-82
2024/03/22 03:39:57;;;;;;;4.40;2.90;;;;;;;14.50;47.27;100133.03;4440176;31;34584;-83
2024/03/22 03:42:24;;;;;;;1.62;1.05;;;;;;;14.39;47.54;100127.44;4457380;31;34195;-82
2024/03/22 03:44:51;;;;;;;5.60;3.72;;;;;;;14.60;46.99;100120.97;4481775;31;33464;-82
2024/03/22 03:47:18;;;;;;;5.07;1.90;;;;;;;14.61;47.21;100127.12;4461158;31;32718;-82
2024/03/22 03:49:48;;;;;;;1.60;1.48;;;;;;;14.48;47.61;100126.97;4461772;31;33245;-82
2024/03/22 03:52:14;;;;;;;2.75;2.10;;;;;;;14.56;47.65;100139.81;4459979;31;32763;-81
2024/03/22 03:54:41;;;;;;;9.77;3.35;;;;;;;14.47;48.01;100133.16;4459303;31;32762;-81
2024/03/22 03:57:08;;;;;;;2.92;2.50;;;;;;;14.27;48.35;100141.38;4477845;31;33760;-82
2024/03/22 03:59:34;;;;;;;2.90;1.90;;;;;;;14.16;48.62;100143.75;4474765;31;33359;-82
2024/03/22 04:02:01;;;;;;;2.67;1.62;;;;;;;14.38;48.18;100149.59;4471152;31;34734;-81
2024/03/22 04:04:28;;;;;;;1.02;0.95;;;;;;;14.53;47.92;100155.94;4451566;31;34419;-82
2024/03/22 04:06:55;;;;;;;1.00;1.00;;;;;;;14.41;48.19;100144.12;4472812;31;33089;-82
2024/03/22 04:09:21;;;;;;;1.60;1.52;;;;;;;14.30;48.52;100143.88;4462363;31;32240;-81
2024/03/22 04:11:48;;;;;;;6.40;3.17;;;;;;;14.27;48.70;100152.00;4453197;31;32677;-82
2024/03/22 04:14:15;;;;;;;2.67;2.12;;;;;;;14.23;48.82;100143.31;4468516;31;32509;-81
2024/03/22 04:16:41;;;;;;;2.20;1.80;;;;;;;14.31;48.84;100148.22;4472936;31;33102;-82
2024/03/22 04:19:09;;;;;;;2.45;2.15;;;;;;;14.34;48.80;100150.75;4458153;31;33740;-82
2024/03/22 04:21:36;;;;;;;4.53;2.50;;;;;;;14.22;49.18;100154.88;4454020;31;32603;-82
2024/03/22 04:24:03;;;;;;;1.60;1.50;;;;;;;14.21;49.22;100147.88;4489416;31;33744;-82
2024/03/22 04:26:29;;;;;;;1.50;1.23;;;;;;;13.95;50.05;100143.91;4455879;31;34139;-81
2024/03/22 04:28:56;;;;;;;11.27;1.12;;;;;;;14.12;49.88;100156.31;4467078;31;32936;-82
2024/03/22 04:31:23;;;;;;;3.33;2.42;;;;;;;14.11;49.91;100154.59;4461780;31;33070;-81
2024/03/22 04:33:50;;;;;;;1.10;1.02;;;;;;;14.07;50.31;100151.25;4470991;31;32749;-81
2024/03/22 04:36:16;;;;;;;1.12;0.88;;;;;;;13.92;50.76;100149.41;4467380;31;34166;-81
2024/03/22 04:38:43;;;;;;;6.37;1.00;;;;;;;13.71;51.72;100148.69;4475551;31;32819;-82
2024/03/22 04:41:10;;;;;;;2.70;2.28;;;;;;;13.86;51.61;100159.47;4454206;31;33916;-82
2024/03/22 04:43:36;;;;;;;9.77;3.37;;;;;;;13.91;51.33;100158.31;4471660;31;31930;-82
2024/03/22 04:46:03;;;;;;;2.08;1.95;;;;;;;14.02;51.38;100165.72;4468921;31;32719;-81
2024/03/22 04:48:30;;;;;;;1.52;1.42;;;;;;;14.03;51.16;100157.66;4468085;31;32984;-81
2024/03/22 04:50:56;;;;;;;0.77;0.77;;;;;;;13.90;51.97;100161.03;4470811;31;33185;-81
2024/03/22 04:53:23;;;;;;;2.70;2.50;;;;;;;13.69;52.56;100160.34;4455061;31;31809;-81
2024/03/22 04:55:50;;;;;;;3.50;1.70;;;;;;;13.80;52.41;100152.69;4472830;31;34058;-81
2024/03/22 04:58:21;;;;;;;2.70;2.08;;;;;;;13.96;51.88;100150.97;4465051;31;33292;-83
2024/03/22 05:00:48;;;;;;;1.62;1.45;;;;;;;13.94;52.08;100157.28;4458906;31;33416;-83
2024/03/22 05:03:16;;;;;;;1.67;1.58;;;;;;;13.94;52.03;100157.28;4459261;31;35472;-83
2024/03/22 05:05:43;;;;;;;0.60;0.60;;;;;;;13.81;52.65;100151.72;4470208;31;34720;-83
2024/03/22 05:08:09;;;;;;;1.40;1.27;;;;;;;13.97;52.13;100155.31;4465032;31;33296;-83
2024/03/22 05:10:36;;;;;;;4.68;1.25;;;;;;;13.90;52.56;100155.72;4466182;31;35466;-82
2024/03/22 05:13:03;;;;;;;1.55;1.45;;;;;;;13.97;52.33;100155.31;4470692;31;33224;-83
2024/03/22 05:15:29;;;;;;;1.80;1.70;;;;;;;13.90;52.65;100151.25;4475766;31;32307;-83
2024/03/22 05:17:57;;;;;;;2.12;1.42;;;;;;;13.98;52.66;100149.06;4459758;31;32539;-83
2024/03/22 05:20:24;;;;;;;1.30;1.17;;;;;;;13.91;52.77;100155.66;4460314;31;32750;-83
2024/03/22 05:25:37;;;;;;;2.00;1.75;;;;;;;14.14;52.07;100156.22;4454653;31;35517;-82
2024/03/22 05:28:03;;;;;;;7.47;2.08;;;;;;;14.18;52.16;100163.09;4489980;31;33374;-83
2024/03/22 05:30:30;;;;;;;1.77;1.67;;;;;;;14.26;51.80;100152.94;4470661;31;33725;-82
2024/03/22 05:32:57;;;;;;;11.27;1.42;;;;;;;14.19;52.37;100162.16;4454913;31;33406;-82
2024/03/22 05:35:23;;;;;;;3.78;3.20;;;;;;;14.23;52.16;100161.06;4469044;31;32953;-82
2024/03/22 05:37:50;;;;;;;3.05;2.72;;;;;;;14.13;52.68;100162.47;4484274;31;35638;-82
2024/03/22 05:40:18;;;;;;;1.52;1.42;;;;;;;13.76;54.05;100161.72;4480925;31;33556;-82
2024/03/22 05:42:44;;;;;;;1.48;1.37;;;;;;;14.19;52.68;100151.53;4467584;31;32395;-82
2024/03/22 05:45:11;;;;;;;3.92;2.92;;;;;;;14.19;53.20;100157.69;4458065;31;33036;-82
2024/03/22 05:47:38;;;;;;;1.62;1.27;;;;;;;13.78;54.50;100162.53;4481932;31;33464;-83
2024/03/22 05:50:08;;;;;;;1.23;1.17;;;;;;;14.17;53.55;100159.59;4471531;31;33264;-82
2024/03/22 05:52:34;;;;;;;0.95;0.95;;;;;;;14.16;53.85;100157.03;4480584;31;33660;-82
2024/03/22 05:55:02;;;;;;;5.72;2.12;;;;;;;14.33;53.11;100154.31;4449808;31;34516;-83
2024/03/22 05:57:29;;;;;;;1.27;1.05;;;;;;;14.39;52.94;100163.78;4470419;31;33370;-83
2024/03/22 05:59:56;;;;;;;1.73;1.60;;;;;;;14.36;53.25;100159.47;4475780;31;33135;-83
2024/03/22 06:02:23;;;;;;;1.48;1.17;;;;;;;14.46;52.95;100154.50;4456281;31;33897;-83
2024/03/22 06:04:50;;;;;;;1.58;1.35;;;;;;;14.58;52.81;100153.91;4453018;31;34501;-83
2024/03/22 06:07:17;;;;;;;1.37;1.17;;;;;;;14.56;52.96;100153.09;4459488;31;32652;-83
2024/03/22 06:09:46;;;;;;;3.28;2.50;;;;;;;14.62;52.95;100149.25;4473460;31;33010;-83
2024/03/22 06:12:14;;;;;;;4.03;2.20;;;;;;;14.72;52.54;100147.81;4467608;31;34339;-82
2024/03/22 06:14:42;;;;;;;1.70;1.60;;;;;;;14.61;52.95;100153.72;4464529;31;33079;-82
2024/03/22 06:17:09;;;;;;;3.17;2.70;;;;;;;14.39;53.66;100153.16;4462173;31;32616;-82
2024/03/22 06:19:36;;;;;;;14.52;2.65;;;;;;;14.86;52.42;100153.25;4445647;31;32722;-82
2024/03/22 06:22:03;;;;;;;4.37;1.33;;;;;;;14.56;53.34;100150.44;4459200;31;32408;-81
2024/03/22 06:24:30;;;;;;;2.42;1.55;;;;;;;14.68;52.95;100157.75;4479970;31;34649;-82
2024/03/22 06:26:57;;;;;;;2.17;1.98;;;;;;;14.73;52.93;100152.19;4456489;31;34163;-81
2024/03/22 06:29:24;;;;;;;5.07;2.40;;;;;;;15.19;51.67;100149.59;4470182;31;33509;-81
2024/03/22 06:31:52;;;;;;;1.85;1.48;;;;;;;14.96;52.44;100150.91;4474891;31;32438;-81
2024/03/22 06:34:19;;;;;;;1.73;1.48;;;;;;;14.84;52.84;100149.78;4453616;31;34000;-81
2024/03/22 06:36:47;;;;;;;0.60;0.57;;;;;;;14.73;53.47;100162.81;4479939;31;33930;-81
2024/03/22 06:39:14;;;;;;;2.58;2.37;;;;;;;14.42;54.27;100160.94;4482543;31;33642;-81
2024/03/22 06:41:41;;;;;;;2.67;2.10;;;;;;;14.51;54.06;100158.66;4453388;31;33982;-81
2024/03/22 06:44:11;;;;;;;1.70;1.60;;;;;;;14.64;53.52;100158.00;4470597;31;33022;-81
2024/03/22 06:46:39;;;;;;;1.50;1.40;;;;;;;14.92;52.88;100147.56;4477355;31;33398;-81
2024/03/22 06:49:06;;;;;;;4.37;2.53;;;;;;;14.88;53.02;100153.13;4473826;31;33005;-81
2024/03/22 06:51:32;;;;;;;1.83;1.73;;;;;;;15.22;52.21;100150.28;4470647;31;32280;-81
2024/03/22 06:53:59;;;;;;;0.93;0.93;;;;;;;15.38;51.82;100155.56;4482901;31;34017;-81
2024/03/22 06:56:26;;;;;;;0.85;0.85;;;;;;;15.00;52.85;100150.66;4464217;31;34411;-81
2024/03/22 06:58:53;;;;;;;5.85;1.87;;;;;;;15.02;53.09;100166.53;4471035;31;33489;-81
2024/03/22 07:01:20;;;;;;;1.83;1.62;;;;;;;14.65;54.01;100167.69;4470957;31;31929;-81
2024/03/22 07:03:47;;;;;;;7.95;1.65;;;;;;;14.68;54.33;100164.88;4478337;31;35113;-81
2024/03/22 07:06:14;;;;;;;2.90;2.70;;;;;;;14.75;53.88;100169.75;4474699;31;33410;-81
2024/03/22 07:08:41;;;;;;;3.85;2.10;;;;;;;15.06;53.28;100165.41;4469983;31;33949;-81
2024/03/22 07:11:08;;;;;;;1.33;1.10;;;;;;;14.70;54.08;100168.31;4474402;31;32139;-81
2024/03/22 07:13:35;;;;;;;2.28;1.15;;;;;;;14.89;53.44;100169.00;4468760;31;33603;-82
2024/03/22 07:16:03;;;;;;;1.48;1.10;;;;;;;15.01;53.11;100176.31;4463915;31;32462;-81
2024/03/22 07:18:30;;;;;;;2.67;1.75;;;;;;;15.15;52.92;100170.22;4473337;31;32888;-81
2024/03/22 07:20:57;;;;;;;0.60;0.60;;;;;;;15.37;52.20;100164.50;4458673;31;32351;-81
2024/03/22 07:23:24;;;;;;;2.22;0.88;;;;;;;15.14;52.77;100172.94;4472340;31;32972;-82
2024/03/22 07:25:51;;;;;;;11.25;3.25;;;;;;;15.27;52.65;100176.63;4481229;31;34919;-82
2024/03/22 07:28:18;;;;;;;3.95;1.75;;;;;;;15.61;51.62;100168.38;4473296;31;32915;-82
2024/03/22 07:30:44;;;;;;;4.10;2.28;;;;;;;15.69;51.50;100170.66;4474871;31;33364;-82
2024/03/22 07:33:16;;;;;;;2.95;1.95;;;;;;;15.76;51.19;100165.81;4458774;31;34417;-82
2024/03/22 07:35:43;;;;;;;1.35;0.77;;;;;;;15.57;52.00;100166.00;4488353;31;32468;-82
2024/03/22 07:38:10;;;;;;;1.17;1.17;;;;;;;15.41;52.58;100173.16;4463134;31;32746;-82
2024/03/22 07:40:37;;;;;;;1.27;1.00;;;;;;;15.58;51.71;100176.56;4454473;31;32190;-82
2024/03/22 07:43:05;;;;;;;2.62;2.03;;;;;;;15.56;51.68;100175.78;4468171;31;34028;-82
2024/03/22 07:45:34;;;;;;;2.53;1.27;;;;;;;15.50;52.08;100176.16;4469776;31;33353;-82
2024/03/22 07:48:01;;;;;;;4.37;1.65;;;;;;;15.39;52.42;100173.28;4466986;31;34813;-82
2024/03/22 07:50:28;;;;;;;4.30;1.83;;;;;;;15.42;52.23;100173.06;4470501;31;31935;-82
2024/03/22 07:52:54;;;;;;;2.35;2.12;;;;;;;15.49;52.09;100177.09;4481965;31;33116;-82
2024/03/22 07:55:22;;;;;;;1.90;1.10;;;;;;;15.16;52.90;100187.88;4470942;31;34352;-82
2024/03/22 07:57:49;;;;;;;1.90;1.77;;;;;;;15.59;51.89;100180.94;4461879;31;33143;-82
2024/03/22 08:00:15;;;;;;;4.00;2.53;;;;;;;15.60;51.78;100182.66;4485865;31;32757;-83
2024/03/22 08:02:42;;;;;;;1.85;1.70;;;;;;;15.48;52.06;100186.03;4483169;31;34294;-82
2024/03/22 08:05:09;;;;;;;2.47;2.00;;;;;;;15.53;52.05;100183.97;4487961;31;34648;-83
2024/03/22 08:07:36;;;;;;;3.10;1.98;;;;;;;15.47;52.29;100192.28;4470604;31;33082;-83
2024/03/22 08:10:04;;;;;;;2.90;2.45;;;;;;;15.74;51.67;100191.69;4483810;31;32954;-83
2024/03/22 08:12:30;;;;;;;5.32;2.35;;;;;;;15.62;51.96;100196.75;4460063;31;30836;-83
2024/03/22 08:14:57;;;;;;;18.42;2.20;;;;;;;15.75;51.93;100196.03;4476425;31;32614;-83
2024/03/22 08:17:23;;;;;;;1.48;1.33;;;;;;;15.88;51.51;100197.03;4483655;31;33024;-83
2024/03/22 08:19:50;;;;;;;3.62;2.62;;;;;;;15.77;52.10;100195.03;4492575;31;33217;-83
2024/03/22 08:22:16;;;;;;;1.67;1.50;;;;;;;15.89;51.73;100193.44;4480934;31;33572;-83
2024/03/22 08:24:43;;;;;;;1.83;1.70;;;;;;;16.03;51.23;100201.44;4470770;31;34132;-83
2024/03/22 08:27:10;;;;;;;2.50;1.42;;;;;;;15.93;51.48;100200.28;4464555;31;34452;-83
2024/03/22 08:29:37;;;;;;;19.50;4.20;;;;;;;16.05;51.27;100194.25;4471048;31;32840;-83
2024/03/22 08:32:04;;;;;;;3.40;3.10;;;;;;;16.43;50.22;100199.06;4460230;31;32873;-83
2024/03/22 08:34:34;;;;;;;2.53;1.40;;;;;;;16.58;49.50;100192.75;4485710;31;33460;-83
2024/03/22 08:37:00;;;;;;;2.87;2.28;;;;;;;17.00;48.57;100203.53;4468839;31;32779;-83
2024/03/22 08:39:27;;;;;;;1.73;1.40;;;;;;;16.57;49.80;100196.37;4483251;31;33047;-83
2024/03/22 08:41:54;;;;;;;2.45;2.08;;;;;;;16.72;49.52;100199.09;4471147;31;32862;-83
2024/03/22 08:44:21;;;;;;;0.80;0.80;;;;;;;16.75;49.30;100193.53;4457523;31;33341;-83
2024/03/22 08:46:49;;;;;;;4.62;3.17;;;;;;;16.33;50.08;100189.87;4477880;31;32836;-83
2024/03/22 08:49:15;;;;;;;1.62;1.52;;;;;;;17.08;48.60;100186.03;4467502;31;33036;-83
2024/03/22 08:51:42;;;;;;;11.43;2.30;;;;;;;17.33;48.01;100189.81;4468855;31;33740;-83
2024/03/22 08:54:09;;;;;;;2.97;2.47;;;;;;;17.52;47.44;100187.66;4488592;31;34776;-83
2024/03/22 08:56:36;;;;;;;3.08;1.65;;;;;;;17.01;49.02;100187.41;4456259;31;33080;-83
2024/03/22 08:59:03;;;;;;;1.30;1.25;;;;;;;17.32;47.90;100182.75;4471267;31;32287;-83
2024/03/22 09:01:29;;;;;;;1.80;1.40;;;;;;;17.69;47.19;100174.97;4473809;31;33858;-83
2024/03/22 09:03:56;;;;;;;1.90;1.77;;;;;;;17.45;47.63;100186.31;4474935;31;33687;-83
2024/03/22 09:06:22;;;;;;;4.15;2.95;;;;;;;17.14;48.57;100185.66;4479828;31;34005;-83
2024/03/22 09:08:49;;;;;;;1.85;1.58;;;;;;;17.25;48.23;100181.44;4485282;31;33154;-83
2024/03/22 09:11:16;;;;;;;5.97;3.22;;;;;;;17.62;47.24;100186.06;4460861;31;33108;-83
2024/03/22 09:13:42;;;;;;;4.60;2.35;;;;;;;17.69;47.02;100180.31;4470455;31;34673;-83
2024/03/22 09:16:09;;;;;;;3.70;1.80;;;;;;;17.51;47.33;100183.25;4483405;31;33412;-83
2024/03/22 09:18:35;;;;;;;2.40;1.92;;;;;;;17.29;47.70;100182.97;4471075;31;33640;-83
2024/03/22 09:21:02;;;;;;;4.68;2.08;;;;;;;17.59;47.32;100175.59;4473001;32;32439;-83
2024/03/22 09:23:29;;;;;;;9.00;1.83;;;;;;;17.47;47.74;100183.53;4486088;31;33950;-83
2024/03/22 09:25:56;;;;;;;14.35;2.33;;;;;;;17.87;46.91;100174.62;4485115;31;33053;-83
2024/03/22 09:28:23;;;;;;;3.90;3.12;;;;;;;17.60;47.56;100171.94;4473116;31;32077;-83
2024/03/22 09:30:49;;;;;;;4.47;3.40;;;;;;;17.76;47.66;100162.97;4474595;31;32652;-83
2024/03/22 09:33:16;;;;;;;2.50;2.30;;;;;;;18.06;46.50;100155.50;4476752;31;32893;-83
2024/03/22 09:35:43;;;;;;;2.53;2.03;;;;;;;18.22;46.59;100151.75;4475973;31;33892;-83
2024/03/22 09:38:10;;;;;;;2.58;1.52;;;;;;;18.85;45.10;100145.53;4470097;31;31572;-83
2024/03/22 09:40:39;;;;;;;4.15;3.30;;;;;;;18.83;44.71;100142.09;4483259;31;34571;-83
2024/03/22 09:43:07;;;;;;;1.77;1.42;;;;;;;18.80;45.11;100142.31;4486258;31;32239;-83
2024/03/22 09:45:34;;;;;;;2.95;2.75;;;;;;;18.82;44.96;100143.06;4484209;31;33822;-83
2024/03/22 09:48:01;;;;;;;3.08;2.15;;;;;;;18.82;45.13;100140.38;4457175;31;31803;-83
2024/03/22 09:50:28;;;;;;;2.37;1.92;;;;;;;18.73;45.07;100149.06;4471766;31;33370;-83
2024/03/22 09:52:56;;;;;;;7.78;2.47;;;;;;;18.75;45.18;100149.81;4484840;31;34687;-83
2024/03/22 09:55:23;;;;;;;4.47;3.08;;;;;;;19.17;43.92;100146.66;4467047;31;34895;-83
2024/03/22 09:57:51;;;;;;;3.90;2.72;;;;;;;18.96;44.51;100140.25;4492372;31;33530;-83
2024/03/22 10:00:25;;;;;;;1.85;1.67;;;;;;;18.54;45.43;100141.47;4480164;31;33978;-82
2024/03/22 10:02:53;;;;;;;1.62;1.45;;;;;;;18.55;45.19;100146.72;4469844;31;33167;-83
2024/03/22 10:05:19;;;;;;;5.57;3.55;;;;;;;18.87;44.57;100135.56;4465448;31;33151;-83
2024/03/22 10:07:46;;;;;;;2.67;2.35;;;;;;;19.24;43.56;100138.22;4468299;31;31762;-83
2024/03/22 10:10:14;;;;;;;4.37;3.47;;;;;;;19.43;43.74;100128.69;4466941;31;33431;-83
2024/03/22 10:12:40;;;;;;;2.83;2.47;;;;;;;19.59;43.23;100119.47;4474563;31;33854;-83
2024/03/22 10:15:08;;;;;;;3.50;2.80;;;;;;;19.55;43.57;100121.53;4471133;31;33689;-83
2024/03/22 10:17:36;;;;;;;4.40;3.40;;;;;;;20.04;41.98;100119.63;4480646;31;33462;-83
2024/03/22 10:20:04;;;;;;;5.53;2.70;;;;;;;19.93;41.99;100115.09;4468119;31;33908;-83
2024/03/22 10:22:30;;;;;;;3.60;2.45;;;;;;;19.78;42.83;100116.28;4466467;31;32757;-83
2024/03/22 10:25:00;;;;;;;5.12;3.70;;;;;;;19.87;42.46;100112.88;4487088;31;33862;-83
2024/03/22 10:27:29;;;;;;;1.67;1.58;;;;;;;19.96;42.30;100109.50;4471480;32;34157;-83
2024/03/22 10:29:56;;;;;;;1.85;1.75;;;;;;;19.93;41.72;100107.91;4470876;31;33413;-83
2024/03/22 10:32:23;;;;;;;2.37;2.17;;;;;;;19.75;41.80;100109.34;4471438;31;33844;-83
2024/03/22 10:34:50;;;;;;;3.30;2.72;;;;;;;19.69;41.40;100109.78;4469078;31;32139;-83
2024/03/22 10:37:17;;;;;;;2.15;1.67;;;;;;;19.24;42.79;100114.13;4470418;31;31833;-83
2024/03/22 10:39:46;;;;;;;6.68;2.47;;;;;;;19.51;42.40;100100.44;4475354;31;32461;-83
2024/03/22 10:42:12;;;;;;;1.83;1.73;;;;;;;19.91;41.96;100109.00;4471760;31;34730;-83
2024/03/22 10:44:41;;;;;;;1.85;1.30;;;;;;;20.04;41.22;100109.75;4467102;31;32886;-83
2024/03/22 10:47:09;;;;;;;5.50;1.60;;;;;;;19.81;41.68;100105.34;4470907;31;34516;-83
2024/03/22 10:49:37;;;;;;;2.85;2.42;;;;;;;19.93;41.38;100104.38;4456429;31;32925;-83
2024/03/22 10:52:05;;;;;;;1.37;1.12;;;;;;;20.16;40.85;100100.75;4464983;31;34458;-84
2024/03/22 10:54:36;;;;;;;1.77;1.67;;;;;;;20.43;39.82;100104.91;4456288;31;34672;-84
2024/03/22 10:57:04;;;;;;;2.90;2.67;;;;;;;20.01;41.30;100103.78;4464219;31;31582;-84
2024/03/22 10:59:34;;;;;;;7.65;2.78;;;;;;;20.26;41.26;100100.88;4469503;31;32244;-84
2024/03/22 11:02:06;;;;;;;3.87;2.67;;;;;;;20.52;39.39;100093.47;4466670;31;34643;-84
2024/03/22 11:04:33;;;;;;;3.83;2.12;;;;;;;20.34;39.95;100103.81;4458901;31;32414;-84
2024/03/22 11:07:01;;;;;;;1.30;1.20;;;;;;;20.40;40.12;100099.78;4463881;31;34079;-84
2024/03/22 11:09:28;;;;;;;4.53;2.72;;;;;;;20.48;39.19;100094.69;4472939;31;33394;-84
2024/03/22 11:11:56;;;;;;;3.20;2.25;;;;;;;20.14;40.62;100102.69;4471555;31;33938;-84
2024/03/22 11:14:24;;;;;;;2.00;1.85;;;;;;;19.89;36.41;100093.06;4453349;31;35397;-84
2024/03/22 11:16:50;;;;;;;4.03;2.28;;;;;;;19.79;37.56;100092.03;4466935;31;32176;-84
2024/03/22 11:19:17;;;;;;;0.95;0.95;;;;;;;20.13;36.96;100087.59;4468560;31;32981;-84
2024/03/22 11:21:44;;;;;;;0.65;0.65;;;;;;;20.39;35.96;100087.34;4452197;31;35129;-84
2024/03/22 11:24:11;;;;;;;1.35;1.10;;;;;;;20.68;34.47;100083.19;4488810;31;33797;-84
2024/03/22 11:26:37;;;;;;;4.07;1.70;;;;;;;20.23;34.40;100079.69;4473367;31;32256;-84